createdAt,value
2023-01-07T00:01:37.736Z,28.25
2023-01-07T00:04:07.012Z,29.85
2023-01-07T00:06:39.590Z,26.05
2023-01-07T00:09:08.469Z,25.09
2023-01-07T00:11:37.979Z,25.66
2023-01-07T00:14:08.840Z,27.24
2023-01-07T00:16:37.442Z,26.15
2023-01-07T00:19:06.766Z,27.18
2023-01-07T00:21:34.497Z,28.37
2023-01-07T00:24:04.526Z,27.82
2023-01-07T00:26:35.619Z,28.29
2023-01-07T00:29:02.918Z,28.66
2023-01-07T00:31:32.967Z,28.31
2023-01-07T00:34:00.476Z,27.45
2023-01-07T00:36:34.557Z,27.13
2023-01-07T00:39:05.180Z,26.96
2023-01-07T00:41:31.971Z,27.23
2023-01-07T00:43:58.959Z,29.09
2023-01-07T00:46:27.040Z,26.59
2023-01-07T00:48:53.914Z,26.10
2023-01-07T00:51:21.480Z,27.42
2023-01-07T00:53:48.590Z,26.72
2023-01-07T00:56:19.798Z,27.13
2023-01-07T00:58:47.044Z,26.61
2023-01-07T01:01:14.874Z,27.71
2023-01-07T01:03:42.137Z,27.87
2023-01-07T01:06:13.487Z,28.30
2023-01-07T01:08:45.065Z,25.75
2023-01-07T01:11:13.858Z,24.50
2023-01-07T01:13:41.387Z,26.58
2023-01-07T01:16:14.095Z,24.90
2023-01-07T01:18:41.324Z,25.43
2023-01-07T01:21:10.861Z,24.27
2023-01-07T01:23:38.264Z,25.59
2023-01-07T01:26:07.241Z,25.01
2023-01-07T01:28:34.940Z,24.02
2023-01-07T01:31:02.866Z,25.54
2023-01-07T01:33:39.359Z,25.70
2023-01-07T01:36:10.179Z,25.38
2023-01-07T01:38:37.809Z,25.74
2023-01-07T01:41:07.056Z,26.26
2023-01-07T01:43:39.708Z,24.59
2023-01-07T01:46:35.348Z,26.79
2023-01-07T01:49:06.535Z,24.42
2023-01-07T01:51:38.533Z,24.24
2023-01-07T01:54:09.907Z,26.59
2023-01-07T01:56:42.590Z,23.07
2023-01-07T01:59:15.291Z,26.03
2023-01-07T02:01:42.321Z,25.51
2023-01-07T02:04:17.130Z,22.90
2023-01-07T02:06:56.333Z,26.30
2023-01-07T02:09:24.611Z,26.88
2023-01-07T02:12:23.907Z,24.98
2023-01-07T02:15:11.925Z,26.42
2023-01-07T02:18:28.319Z,29.12
2023-01-07T02:21:11.387Z,26.72
2023-01-07T02:23:41.089Z,24.64
2023-01-07T02:26:13.996Z,24.41
2023-01-07T02:29:07.017Z,27.14
2023-01-07T02:31:52.402Z,26.48
2023-01-07T02:34:19.193Z,25.30
2023-01-07T02:37:17.147Z,27.05
2023-01-07T02:39:59.404Z,26.53
2023-01-07T02:43:07.404Z,26.90
2023-01-07T02:46:00.869Z,26.21
2023-01-07T02:48:28.433Z,26.10
2023-01-07T02:50:55.585Z,29.20
2023-01-07T02:53:22.628Z,26.97
2023-01-07T02:56:15.789Z,26.27
2023-01-07T02:59:01.903Z,23.54
2023-01-07T03:01:49.478Z,23.29
2023-01-07T03:04:43.311Z,24.22
2023-01-07T03:07:43.411Z,23.82
2023-01-07T03:10:10.287Z,25.88
2023-01-07T03:12:40.257Z,25.10
2023-01-07T03:15:14.799Z,28.70
2023-01-07T03:17:48.044Z,26.90
2023-01-07T03:20:17.365Z,27.28
2023-01-07T03:22:46.478Z,27.02
2023-01-07T03:25:14.871Z,24.07
2023-01-07T03:27:45.812Z,23.12
2023-01-07T03:30:16.534Z,23.39
2023-01-07T03:32:52.206Z,26.39
2023-01-07T03:35:22.566Z,23.65
2023-01-07T03:37:52.338Z,25.01
2023-01-07T03:40:21.351Z,23.48
2023-01-07T03:42:49.380Z,23.53
2023-01-07T03:45:25.447Z,23.85
2023-01-07T03:47:57.723Z,22.56
2023-01-07T03:50:29.373Z,25.50
2023-01-07T03:52:56.698Z,24.93
2023-01-07T03:55:24.420Z,27.58
2023-01-07T03:57:54.150Z,29.04
2023-01-07T04:00:21.926Z,26.53
2023-01-07T04:02:58.309Z,25.63
2023-01-07T04:05:32.725Z,27.14
2023-01-07T04:07:59.482Z,27.41
2023-01-07T04:10:31.930Z,26.93
2023-01-07T04:12:58.739Z,24.57
2023-01-07T04:15:25.607Z,25.42
2023-01-07T04:17:53.403Z,25.80
2023-01-07T04:20:20.373Z,24.53
2023-01-07T04:22:47.115Z,27.56
2023-01-07T04:25:14.635Z,28.81
2023-01-07T04:27:42.113Z,29.22
2023-01-07T04:30:09.414Z,26.82
2023-01-07T04:32:36.987Z,29.32
2023-01-07T04:35:04.305Z,26.85
2023-01-07T04:37:32.027Z,27.82
2023-01-07T04:39:59.045Z,26.25
2023-01-07T04:42:26.288Z,25.45
2023-01-07T04:44:54.002Z,24.90
2023-01-07T04:47:20.820Z,24.40
2023-01-07T04:49:48.540Z,24.40
2023-01-07T04:52:15.576Z,25.02
2023-01-07T04:54:42.831Z,23.66
2023-01-07T04:57:10.308Z,23.64
2023-01-07T04:59:38.362Z,22.70
2023-01-07T05:02:05.850Z,25.61
2023-01-07T05:04:33.592Z,25.62
2023-01-07T05:07:00.882Z,23.98
2023-01-07T05:09:27.732Z,23.63
2023-01-07T05:11:54.583Z,23.43
2023-01-07T05:14:22.060Z,23.44
2023-01-07T05:16:53.149Z,24.65
2023-01-07T05:19:22.143Z,25.72
2023-01-07T05:21:49.570Z,25.40
2023-01-07T05:24:17.389Z,26.58
2023-01-07T05:26:45.344Z,24.40
2023-01-07T05:29:13.645Z,25.22
2023-01-07T05:31:42.474Z,25.05
2023-01-07T05:34:09.762Z,23.99
2023-01-07T05:36:38.289Z,23.19
2023-01-07T05:39:05.987Z,23.49
2023-01-07T05:41:33.669Z,23.21
2023-01-07T05:44:00.552Z,23.87
2023-01-07T05:46:27.592Z,23.93
2023-01-07T05:48:54.579Z,23.17
2023-01-07T05:51:22.101Z,23.31
2023-01-07T05:53:48.864Z,24.08
2023-01-07T05:56:15.600Z,23.25
2023-01-07T05:58:42.810Z,23.62
2023-01-07T06:01:09.814Z,23.55
2023-01-07T06:03:37.296Z,24.98
2023-01-07T06:06:07.585Z,25.41
2023-01-07T06:08:35.620Z,24.46
2023-01-07T06:11:03.224Z,24.24
2023-01-07T06:13:29.954Z,23.56
2023-01-07T06:16:01.653Z,23.15
2023-01-07T06:18:28.676Z,23.18
2023-01-07T06:20:55.420Z,23.35
2023-01-07T06:23:22.599Z,23.51
2023-01-07T06:25:49.452Z,22.66
2023-01-07T06:28:16.685Z,22.67
2023-01-07T06:30:47.016Z,22.73
2023-01-07T06:33:14.819Z,22.53
2023-01-07T06:35:41.871Z,22.76
2023-01-07T06:38:09.136Z,23.34
2023-01-07T06:40:37.836Z,23.38
2023-01-07T06:43:04.569Z,24.61
2023-01-07T06:45:31.261Z,23.75
2023-01-07T06:47:58.669Z,23.31
2023-01-07T06:50:25.736Z,23.22
2023-01-07T06:52:52.837Z,23.82
2023-01-07T06:55:19.590Z,24.69
2023-01-07T06:57:46.335Z,26.60
2023-01-07T07:00:13.755Z,27.72
2023-01-07T07:02:40.531Z,23.96
2023-01-07T07:05:08.086Z,24.25
2023-01-07T07:07:34.848Z,22.85
2023-01-07T07:10:07.747Z,22.66
2023-01-07T07:12:36.133Z,23.21
2023-01-07T07:15:03.217Z,23.69
2023-01-07T07:17:29.976Z,23.51
2023-01-07T07:19:56.785Z,24.14
2023-01-07T07:22:24.177Z,23.81
2023-01-07T07:24:50.974Z,23.16
2023-01-07T07:27:17.720Z,23.30
2023-01-07T07:29:44.644Z,23.87
2023-01-07T07:32:11.371Z,23.39
2023-01-07T07:34:38.201Z,23.90
2023-01-07T07:37:05.014Z,23.77
2023-01-07T07:39:31.825Z,23.32
2023-01-07T07:41:58.957Z,22.74
2023-01-07T07:44:29.342Z,23.38
2023-01-07T07:46:56.155Z,23.56
2023-01-07T07:49:23.497Z,22.61
2023-01-07T07:51:50.831Z,25.48
2023-01-07T07:54:17.706Z,22.21
2023-01-07T07:56:44.665Z,21.62
2023-01-07T07:59:11.493Z,21.42
2023-01-07T08:01:38.576Z,20.61
2023-01-07T08:04:05.575Z,20.21
2023-01-07T08:06:34.335Z,22.90
2023-01-07T08:09:01.409Z,21.68
2023-01-07T08:11:28.227Z,19.77
2023-01-07T08:13:55.093Z,21.82
2023-01-07T08:16:21.886Z,20.84
2023-01-07T08:18:48.966Z,20.50
2023-01-07T08:21:15.769Z,19.08
2023-01-07T08:23:42.532Z,18.50
2023-01-07T08:26:09.939Z,20.87
2023-01-07T08:28:37.033Z,18.62
2023-01-07T08:31:05.682Z,19.96
2023-01-07T08:33:37.352Z,18.61
2023-01-07T08:36:22.054Z,17.14
2023-01-07T08:38:52.168Z,17.33
2023-01-07T08:41:21.348Z,17.45
2023-01-07T08:43:48.166Z,18.15
2023-01-07T08:46:15.044Z,16.72
2023-01-07T08:48:41.826Z,16.49
2023-01-07T08:51:09.106Z,16.89
2023-01-07T08:53:35.823Z,19.59
2023-01-07T08:56:02.851Z,18.12
2023-01-07T08:58:29.616Z,17.81
2023-01-07T09:01:05.833Z,17.92
2023-01-07T09:03:33.315Z,17.51
2023-01-07T09:06:00.107Z,17.41
2023-01-07T09:08:27.039Z,17.91
2023-01-07T09:10:54.198Z,17.42
2023-01-07T09:13:20.964Z,16.59
2023-01-07T09:15:48.367Z,15.66
2023-01-07T09:18:15.159Z,15.43
2023-01-07T09:20:41.891Z,14.93
2023-01-07T09:23:09.066Z,14.89
2023-01-07T09:25:35.913Z,17.19
2023-01-07T09:28:02.683Z,15.93
2023-01-07T09:30:29.793Z,18.78
2023-01-07T09:32:56.783Z,17.56
2023-01-07T09:35:23.623Z,16.13
2023-01-07T09:37:50.908Z,17.41
2023-01-07T09:40:28.713Z,14.34
2023-01-07T09:43:07.936Z,15.58
2023-01-07T09:45:40.881Z,16.86
2023-01-07T09:48:15.974Z,15.87
2023-01-07T09:50:51.905Z,14.73
2023-01-07T09:53:25.120Z,13.74
2023-01-07T09:56:11.052Z,16.99
2023-01-07T09:58:42.428Z,17.39
2023-01-07T10:01:24.331Z,17.74
2023-01-07T10:04:04.011Z,16.11
2023-01-07T10:06:58.361Z,19.19
2023-01-07T10:09:43.658Z,19.88
2023-01-07T10:12:17.774Z,18.99
2023-01-07T10:14:59.415Z,17.72
2023-01-07T10:17:26.463Z,14.52
2023-01-07T10:20:21.709Z,13.56
2023-01-07T10:22:57.249Z,20.53
2023-01-07T10:25:34.017Z,17.97
2023-01-07T10:28:06.650Z,18.39
2023-01-07T10:30:41.832Z,14.08
2023-01-07T10:33:31.515Z,16.27
2023-01-07T10:36:25.210Z,14.76
2023-01-07T10:38:58.035Z,14.79
2023-01-07T10:41:38.325Z,15.38
2023-01-07T10:44:24.112Z,14.02
2023-01-07T10:46:54.115Z,14.10
2023-01-07T10:49:45.709Z,17.07
2023-01-07T10:52:30.718Z,15.41
2023-01-07T10:54:57.513Z,18.16
2023-01-07T10:57:28.109Z,14.59
2023-01-07T10:59:59.380Z,18.38
2023-01-07T11:02:29.802Z,15.85
2023-01-07T11:04:58.520Z,18.62
2023-01-07T11:07:56.691Z,17.52
2023-01-07T11:10:29.183Z,14.31
2023-01-07T11:13:14.239Z,15.87
2023-01-07T11:15:47.675Z,16.86
2023-01-07T11:18:23.592Z,17.38
2023-01-07T11:20:55.993Z,15.26
2023-01-07T11:23:38.578Z,14.60
2023-01-07T11:26:16.864Z,16.32
2023-01-07T11:28:48.877Z,15.03
2023-01-07T11:31:16.117Z,16.61
2023-01-07T11:34:02.719Z,19.14
2023-01-07T11:36:42.563Z,19.45
2023-01-07T11:39:19.800Z,18.82
2023-01-07T11:41:58.404Z,18.18
2023-01-07T11:44:27.200Z,17.87
2023-01-07T11:46:55.038Z,18.42
2023-01-07T11:49:29.143Z,19.85
2023-01-07T11:51:57.200Z,21.09
2023-01-07T11:54:27.860Z,19.62
2023-01-07T11:57:12.955Z,19.09
2023-01-07T11:59:39.760Z,17.61
2023-01-07T12:02:26.137Z,18.09
2023-01-07T12:04:53.098Z,20.61
2023-01-07T12:07:20.193Z,18.15
2023-01-07T12:09:47.296Z,18.17
2023-01-07T12:12:34.267Z,18.16
2023-01-07T12:15:04.184Z,20.33
2023-01-07T12:17:35.037Z,20.46
2023-01-07T12:20:27.848Z,21.21
2023-01-07T12:23:15.529Z,20.79
2023-01-07T12:26:27.409Z,20.95
2023-01-07T12:29:03.166Z,19.93
2023-01-07T12:32:04.403Z,18.17
2023-01-07T12:34:57.787Z,20.34
2023-01-07T12:38:06.395Z,20.01
2023-01-07T12:40:53.777Z,21.71
2023-01-07T12:43:49.964Z,19.82
2023-01-07T12:46:20.131Z,18.81
2023-01-07T12:49:15.901Z,18.35
2023-01-07T12:51:50.236Z,19.75
2023-01-07T12:54:25.172Z,20.55
2023-01-07T12:56:58.584Z,19.74
2023-01-07T12:59:45.836Z,21.56
2023-01-07T13:02:37.617Z,22.04
2023-01-07T13:05:04.661Z,22.23
2023-01-07T13:07:42.756Z,21.35
2023-01-07T13:10:35.763Z,19.61
2023-01-07T13:13:06.991Z,18.50
2023-01-07T13:15:39.025Z,22.09
2023-01-07T13:18:11.927Z,21.55
2023-01-07T13:20:57.828Z,21.68
2023-01-07T13:23:39.376Z,19.86
2023-01-07T13:26:30.987Z,19.50
2023-01-07T13:29:22.184Z,19.33
2023-01-07T13:32:06.831Z,21.53
2023-01-07T13:34:56.744Z,21.40
2023-01-07T13:37:32.662Z,21.49
2023-01-07T13:40:20.222Z,19.89
2023-01-07T13:43:12.396Z,19.66
2023-01-07T13:45:41.788Z,19.93
2023-01-07T13:48:20.863Z,18.24
2023-01-07T13:51:00.020Z,18.54
2023-01-07T13:53:27.128Z,19.87
2023-01-07T13:56:14.886Z,20.23
2023-01-07T13:58:42.103Z,19.35
2023-01-07T14:01:14.795Z,20.08
2023-01-07T14:03:51.110Z,21.45
2023-01-07T14:06:21.138Z,19.21
2023-01-07T14:08:53.481Z,19.97
2023-01-07T14:11:30.957Z,19.08
2023-01-07T14:14:07.782Z,20.42
2023-01-07T14:17:11.980Z,23.23
2023-01-07T14:20:06.196Z,20.78
2023-01-07T14:22:40.841Z,21.39
2023-01-07T14:25:28.303Z,21.44
2023-01-07T14:28:02.551Z,21.28
2023-01-07T14:30:49.997Z,21.62
2023-01-07T14:33:22.721Z,21.84
2023-01-07T14:35:59.708Z,21.87
2023-01-07T14:38:29.539Z,21.12
2023-01-07T14:41:11.253Z,22.66
2023-01-07T14:43:41.054Z,22.95
2023-01-07T14:46:28.453Z,22.33
2023-01-07T14:48:58.592Z,22.34
2023-01-07T14:51:46.564Z,21.57
2023-01-07T14:54:16.375Z,22.55
2023-01-07T14:57:10.214Z,22.09
2023-01-07T14:59:45.787Z,22.53
2023-01-07T15:02:37.820Z,22.52
2023-01-07T15:05:49.618Z,22.30
2023-01-07T15:08:38.828Z,22.49
2023-01-07T15:11:31.288Z,22.23
2023-01-07T15:14:23.255Z,23.12
2023-01-07T15:16:52.163Z,22.83
2023-01-07T15:19:19.243Z,22.64
2023-01-07T15:21:58.840Z,24.17
2023-01-07T15:24:39.516Z,22.18
2023-01-07T15:27:35.152Z,21.67
2023-01-07T15:30:09.196Z,22.58
2023-01-07T15:32:45.873Z,23.67
2023-01-07T15:35:22.360Z,21.75
2023-01-07T15:37:51.026Z,22.87
2023-01-07T15:40:20.140Z,21.69
2023-01-07T15:42:49.533Z,20.89
2023-01-07T15:45:23.319Z,21.59
2023-01-07T15:47:51.021Z,22.94
2023-01-07T15:50:23.702Z,21.91
2023-01-07T15:53:00.140Z,22.15
2023-01-07T15:55:28.242Z,22.37
2023-01-07T15:58:13.016Z,22.32
2023-01-07T16:00:40.561Z,21.42
2023-01-07T16:03:07.686Z,21.20
2023-01-07T16:05:38.413Z,23.19
2023-01-07T16:08:05.559Z,21.58
2023-01-07T16:10:35.248Z,21.28
2023-01-07T16:13:05.696Z,22.02
2023-01-07T16:15:35.518Z,22.13
2023-01-07T16:18:19.166Z,20.90
2023-01-07T16:20:54.285Z,21.62
2023-01-07T16:23:28.289Z,21.19
2023-01-07T16:26:08.447Z,22.27
2023-01-07T16:28:41.998Z,21.26
2023-01-07T16:31:13.583Z,20.90
2023-01-07T16:33:42.733Z,21.16
2023-01-07T16:36:19.820Z,22.42
2023-01-07T16:38:49.836Z,22.64
2023-01-07T16:41:28.315Z,23.44
2023-01-07T16:43:56.992Z,23.62
2023-01-07T16:46:27.060Z,22.77
2023-01-07T16:49:09.154Z,22.67
2023-01-07T16:51:43.564Z,21.83
2023-01-07T16:54:25.575Z,22.43
2023-01-07T16:56:54.228Z,22.09
2023-01-07T16:59:24.983Z,21.70
2023-01-07T17:01:52.131Z,21.62
2023-01-07T17:04:30.267Z,23.69
2023-01-07T17:07:00.306Z,22.25
2023-01-07T17:09:38.243Z,21.82
2023-01-07T17:12:05.633Z,22.12
2023-01-07T17:14:44.951Z,22.69
2023-01-07T17:17:17.614Z,24.17
2023-01-07T17:20:19.989Z,23.03
2023-01-07T17:22:47.316Z,21.45
2023-01-07T17:25:15.358Z,22.05
2023-01-07T17:27:58.958Z,22.80
2023-01-07T17:30:33.854Z,24.58
2023-01-07T17:33:01.324Z,22.61
2023-01-07T17:35:29.534Z,22.63
2023-01-07T17:37:57.303Z,21.67
2023-01-07T17:40:24.298Z,22.45
2023-01-07T17:43:09.587Z,22.77
2023-01-07T17:45:36.479Z,22.12
2023-01-07T17:48:19.453Z,25.37
2023-01-07T17:50:49.763Z,28.05
2023-01-07T17:53:23.593Z,27.55
2023-01-07T17:55:50.647Z,31.08
2023-01-07T17:58:35.289Z,29.18
2023-01-07T18:01:06.555Z,25.75
2023-01-07T18:03:33.764Z,24.84
2023-01-07T18:06:00.860Z,23.00
2023-01-07T18:08:27.872Z,22.54
2023-01-07T18:11:15.306Z,23.54
2023-01-07T18:13:42.646Z,22.75
2023-01-07T18:16:14.494Z,22.30
2023-01-07T18:18:41.266Z,23.19
2023-01-07T18:21:11.341Z,25.62
2023-01-07T18:23:38.697Z,23.92
2023-01-07T18:26:06.527Z,26.21
2023-01-07T18:28:33.547Z,27.25
2023-01-07T18:31:00.581Z,24.12
2023-01-07T18:33:27.811Z,22.84
2023-01-07T18:35:54.834Z,22.89
2023-01-07T18:38:21.617Z,24.55
2023-01-07T18:40:48.901Z,29.15
2023-01-07T18:43:19.663Z,25.28
2023-01-07T18:45:48.251Z,25.20
2023-01-07T18:48:17.221Z,27.02
2023-01-07T18:50:46.192Z,30.35
2023-01-07T18:53:13.074Z,27.45
2023-01-07T18:55:42.104Z,28.25
2023-01-07T18:58:12.086Z,31.32
2023-01-07T19:00:39.107Z,24.83
2023-01-07T19:03:06.228Z,25.61
2023-01-07T19:05:33.220Z,27.92
2023-01-07T19:08:00.247Z,24.46
2023-01-07T19:10:28.167Z,27.68
2023-01-07T19:12:55.254Z,26.93
2023-01-07T19:15:22.041Z,26.08
2023-01-07T19:17:48.732Z,26.66
2023-01-07T19:20:16.515Z,31.20
2023-01-07T19:22:43.319Z,29.15
2023-01-07T19:25:10.543Z,26.88
2023-01-07T19:27:37.363Z,28.25
2023-01-07T19:30:05.511Z,26.51
2023-01-07T19:32:32.547Z,26.25
2023-01-07T19:35:00.151Z,28.09
2023-01-07T19:37:26.979Z,27.46
2023-01-07T19:39:53.794Z,25.48
2023-01-07T19:42:21.137Z,26.12
2023-01-07T19:44:47.944Z,24.90
2023-01-07T19:47:17.237Z,23.73
2023-01-07T19:49:45.628Z,25.22
2023-01-07T19:52:13.612Z,23.17
2023-01-07T19:54:41.844Z,24.59
2023-01-07T19:57:09.028Z,24.94
2023-01-07T19:59:36.462Z,29.80
2023-01-07T20:02:03.865Z,27.14
2023-01-07T20:04:30.773Z,27.59
2023-01-07T20:06:57.515Z,26.27
2023-01-07T20:09:24.949Z,25.77
2023-01-07T20:11:51.963Z,24.68
2023-01-07T20:14:18.714Z,26.54
2023-01-07T20:16:45.832Z,28.22
2023-01-07T20:19:12.795Z,29.91
2023-01-07T20:21:40.063Z,30.91
2023-01-07T20:24:07.365Z,27.17
2023-01-07T20:26:35.185Z,27.91
2023-01-07T20:29:02.352Z,28.13
2023-01-07T20:31:31.176Z,26.44
2023-01-07T20:34:00.118Z,25.81
2023-01-07T20:36:30.911Z,24.84
2023-01-07T20:38:58.120Z,25.70
2023-01-07T20:41:26.966Z,29.30
2023-01-07T20:44:00.075Z,27.38
2023-01-07T20:46:30.231Z,26.38
2023-01-07T20:48:58.297Z,26.87
2023-01-07T20:51:25.949Z,25.89
2023-01-07T20:53:53.437Z,23.64
2023-01-07T20:56:23.116Z,28.61
2023-01-07T20:58:51.151Z,24.62
2023-01-07T21:01:21.032Z,24.46
2023-01-07T21:03:48.605Z,25.88
2023-01-07T21:06:17.843Z,28.43
2023-01-07T21:08:46.644Z,28.41
2023-01-07T21:11:19.830Z,29.09
2023-01-07T21:13:47.682Z,26.13
2023-01-07T21:16:16.220Z,27.14
2023-01-07T21:18:43.415Z,28.30
2023-01-07T21:21:13.424Z,28.02
2023-01-07T21:23:41.765Z,24.18
2023-01-07T21:26:09.591Z,22.95
2023-01-07T21:28:36.822Z,22.81
2023-01-07T21:31:09.664Z,24.78
2023-01-07T21:33:37.447Z,27.46
2023-01-07T21:36:13.013Z,27.42
2023-01-07T21:38:40.071Z,26.30
2023-01-07T21:41:09.200Z,25.43
2023-01-07T21:43:36.637Z,24.30
2023-01-07T21:46:05.291Z,26.82
2023-01-07T21:48:37.106Z,24.32
2023-01-07T21:51:08.564Z,27.03
2023-01-07T21:53:35.807Z,25.72
2023-01-07T21:56:25.999Z,24.66
2023-01-07T21:58:53.136Z,24.52
2023-01-07T22:01:20.154Z,24.87
2023-01-07T22:03:49.382Z,22.94
2023-01-07T22:06:28.430Z,24.34
2023-01-07T22:08:57.588Z,28.63
2023-01-07T22:11:24.891Z,27.06
2023-01-07T22:13:57.266Z,27.75
2023-01-07T22:16:25.925Z,28.34
2023-01-07T22:18:54.169Z,23.49
2023-01-07T22:21:21.217Z,22.95
2023-01-07T22:23:48.744Z,26.11
2023-01-07T22:26:18.305Z,29.01
2023-01-07T22:28:49.869Z,29.04
2023-01-07T22:31:28.972Z,27.00
2023-01-07T22:33:56.549Z,26.13
2023-01-07T22:36:41.775Z,27.50
2023-01-07T22:39:15.933Z,23.89
2023-01-07T22:41:43.489Z,26.04
2023-01-07T22:44:14.869Z,27.74
2023-01-07T22:46:45.001Z,25.41
2023-01-07T22:49:11.831Z,25.30
2023-01-07T22:51:43.887Z,26.56
2023-01-07T22:54:12.591Z,26.71
2023-01-07T22:56:40.611Z,25.42
2023-01-07T22:59:07.358Z,25.96
2023-01-07T23:01:34.617Z,24.85
2023-01-07T23:04:01.480Z,25.53
2023-01-07T23:06:28.348Z,25.18
2023-01-07T23:08:55.076Z,24.28
2023-01-07T23:11:40.453Z,24.57
2023-01-07T23:14:07.217Z,24.39
2023-01-07T23:16:37.793Z,25.77
2023-01-07T23:19:04.825Z,25.42
2023-01-07T23:21:36.902Z,25.16
2023-01-07T23:24:04.056Z,24.72
2023-01-07T23:26:31.114Z,24.03
2023-01-07T23:28:58.033Z,23.12
2023-01-07T23:31:24.879Z,26.22
2023-01-07T23:33:51.678Z,25.14
2023-01-07T23:36:19.087Z,27.67
2023-01-07T23:38:46.638Z,26.31
2023-01-07T23:41:13.401Z,25.54
2023-01-07T23:43:40.306Z,25.36
2023-01-07T23:46:08.062Z,25.20
2023-01-07T23:48:37.799Z,24.37
2023-01-07T23:51:13.070Z,29.22
2023-01-07T23:53:40.515Z,26.28
2023-01-07T23:56:08.142Z,24.03
2023-01-07T23:58:35.761Z,22.87
